Time;durP1;ratioP1;P1;durP2;ratioP2;P2;SDS_P1;SDS_P2;PMS_P1;PMS_P2;Temp;Humidity;BMP_temperature;BMP_pressure;BME280_temperature;BME280_humidity;BME280_pressure;Samples;Min_cycle;Max_cycle;Signal;HPM_P1;HPM_P2
2021/12/16 00:01:59;;;;;;;;;;;;;;;7.61;61.25;101269.16;4379889;32;20006;-92
2021/12/16 00:10:09;;;;;;;;;;;;;;;8.33;58.93;101272.75;4383544;32;20020;-81
2021/12/16 00:32:18;;;;;;;;;;;;;;;8.40;57.71;101265.34;4352760;32;19983;-86
2021/12/16 00:34:46;;;;;;;;;;;;;;;8.35;57.56;101271.09;4353697;32;19997;-86
2021/12/16 00:37:13;;;;;;;;;;;;;;;8.31;57.41;101278.63;4353409;32;20003;-84
2021/12/16 00:39:41;;;;;;;;;;;;;;;8.33;57.06;101275.31;4365437;32;20005;-85
2021/12/16 00:42:27;;;;;;;;;;;;;;;8.35;56.72;101281.41;4368427;32;20049;-84
2021/12/16 00:55:49;;;;;;;;;;;;;;;8.27;56.21;101277.59;4362069;32;20075;-82
2021/12/16 00:58:20;;;;;;;;;;;;;;;8.28;56.17;101278.47;4367969;32;20054;-86
2021/12/16 01:00:55;;;;;;;;;;;;;;;8.28;55.68;101274.19;4359162;32;20298;-85
2021/12/16 01:33:44;;;;;;;;;;;;;;;8.02;57.63;101279.78;4385881;32;19990;-83
2021/12/16 01:36:31;;;;;;;;;;;;;;;7.85;58.09;101272.09;4392458;32;19981;-84
2021/12/16 01:47:36;;;;;;;;;;;;;;;8.05;57.56;101256.75;4400895;32;20016;-86
2021/12/16 01:50:08;;;;;;;;;;;;;;;8.10;57.49;101252.66;4407606;32;20019;-86
2021/12/16 01:55:34;;;;;;;;;;;;;;;7.99;57.80;101243.53;4392705;32;20023;-87
2021/12/16 01:58:14;;;;;;;;;;;;;;;8.03;58.16;101240.28;4397705;32;20422;-86
2021/12/16 02:01:11;;;;;;;;;;;;;;;8.00;58.01;101241.03;4400738;32;19974;-86
2021/12/16 02:03:44;;;;;;;;;;;;;;;8.00;57.89;101245.31;4400757;32;20316;-88
2021/12/16 02:08:47;;;;;;;;;;;;;;;7.85;57.68;101248.91;4413075;32;20497;-87
2021/12/16 02:37:30;;;;;;;;;;;;;;;8.02;59.03;101236.84;4386759;32;19982;-87
2021/12/16 02:39:57;;;;;;;;;;;;;;;8.05;58.88;101234.41;4397521;32;20042;-85
2021/12/16 02:42:33;;;;;;;;;;;;;;;8.17;58.40;101228.97;4397957;32;19983;-86
2021/12/16 02:50:24;;;;;;;;;;;;;;;8.30;58.45;101226.16;4386676;32;20042;-88
2021/12/16 02:52:50;;;;;;;;;;;;;;;8.21;59.19;101220.56;4386167;32;20004;-88
2021/12/16 02:55:18;;;;;;;;;;;;;;;8.20;59.27;101221.38;4386712;32;20021;-89
2021/12/16 02:57:58;;;;;;;;;;;;;;;8.24;58.95;101220.72;4397196;32;19990;-88
2021/12/16 03:00:26;;;;;;;;;;;;;;;8.35;58.57;101224.66;4386811;32;19995;-84
2021/12/16 03:02:57;;;;;;;;;;;;;;;8.31;58.92;101222.75;4397291;32;20312;-87
2021/12/16 03:05:23;;;;;;;;;;;;;;;8.34;58.93;101215.16;4386342;32;20054;-82
2021/12/16 03:07:51;;;;;;;;;;;;;;;8.26;59.09;101208.75;4397924;32;20041;-87
2021/12/16 03:13:02;;;;;;;;;;;;;;;8.21;59.52;101199.94;4396934;32;19982;-89
2021/12/16 03:15:49;;;;;;;;;;;;;;;8.34;59.49;101191.06;4396829;32;20032;-88
2021/12/16 03:18:40;;;;;;;;;;;;;;;8.33;59.39;101200.50;4396300;32;19978;-85
2021/12/16 03:21:26;;;;;;;;;;;;;;;8.27;59.83;101195.06;4386482;32;20320;-88
2021/12/16 03:27:10;;;;;;;;;;;;;;;8.26;59.98;101197.53;4386116;32;20049;-91
2021/12/16 03:30:13;;;;;;;;;;;;;;;8.24;59.95;101194.91;4394891;32;19983;-87
2021/12/16 03:35:13;;;;;;;;;;;;;;;8.27;59.92;101195.06;4382884;32;20046;-89
2021/12/16 03:37:41;;;;;;;;;;;;;;;8.33;59.93;101208.25;4381144;32;20038;-88
2021/12/16 03:40:09;;;;;;;;;;;;;;;8.43;59.47;101213.88;4385827;32;19995;-91
2021/12/16 03:42:36;;;;;;;;;;;;;;;8.47;59.52;101202.87;4386666;32;19994;-85
2021/12/16 03:46:25;;;;;;;;;;;;;;;8.65;58.64;101203.72;4398349;32;19978;-90
2021/12/16 03:48:02;;;;;;;;;;;;;;;8.47;59.35;101197.72;4394832;32;19984;-89
2021/12/16 03:50:29;;;;;;;;;;;;;;;8.50;59.22;101203.00;4386403;32;20054;-90
2021/12/16 03:52:56;;;;;;;;;;;;;;;8.40;59.94;101200.81;4398039;32;20729;-84
2021/12/16 03:55:23;;;;;;;;;;;;;;;8.43;59.86;101191.53;4386303;32;20356;-87
2021/12/16 03:57:50;;;;;;;;;;;;;;;8.37;60.36;101194.66;4386411;32;19993;-86
2021/12/16 04:00:20;;;;;;;;;;;;;;;8.53;59.70;101198.88;4386721;32;19978;-86
2021/12/16 04:02:50;;;;;;;;;;;;;;;8.52;59.88;101203.94;4387018;32;20092;-85
2021/12/16 04:05:17;;;;;;;;;;;;;;;8.47;60.06;101202.87;4385857;32;19989;-84
2021/12/16 04:07:45;;;;;;;;;;;;;;;8.56;59.59;101203.31;4385532;32;20009;-85
2021/12/16 04:10:16;;;;;;;;;;;;;;;8.64;59.23;101207.09;4397626;32;19982;-90
2021/12/16 04:12:43;;;;;;;;;;;;;;;8.70;58.60;101196.19;4396546;32;19986;-84
2021/12/16 04:15:10;;;;;;;;;;;;;;;8.60;59.25;101200.03;4373315;32;20049;-89
2021/12/16 04:17:38;;;;;;;;;;;;;;;8.65;59.14;101202.81;4386699;32;19994;-86
2021/12/16 04:20:08;;;;;;;;;;;;;;;8.69;59.00;101200.47;4384437;32;20392;-86
2021/12/16 04:22:41;;;;;;;;;;;;;;;8.62;59.02;101190.69;4386100;32;20276;-86
2021/12/16 04:25:11;;;;;;;;;;;;;;;8.61;59.10;101191.47;4386408;32;19966;-86
2021/12/16 04:27:58;;;;;;;;;;;;;;;8.76;58.70;101202.50;4395530;32;20046;-85
2021/12/16 04:30:28;;;;;;;;;;;;;;;8.55;59.14;101192.09;4384963;32;19990;-83
2021/12/16 04:32:55;;;;;;;;;;;;;;;8.64;58.85;101196.78;4383474;32;19986;-83
2021/12/16 04:35:22;;;;;;;;;;;;;;;8.75;58.44;101202.44;4397600;32;19978;-85
2021/12/16 04:37:51;;;;;;;;;;;;;;;8.75;58.41;101203.31;4397457;32;20010;-84
2021/12/16 04:40:18;;;;;;;;;;;;;;;8.80;58.29;101206.97;4396659;32;19983;-85
2021/12/16 04:42:46;;;;;;;;;;;;;;;8.79;58.27;101207.81;4385050;32;20003;-86
2021/12/16 04:45:16;;;;;;;;;;;;;;;8.87;58.09;101205.59;4384942;32;20000;-89
2021/12/16 04:47:43;;;;;;;;;;;;;;;8.71;58.70;101204.00;4385310;32;20433;-85
2021/12/16 04:50:11;;;;;;;;;;;;;;;8.73;57.93;101202.34;4395815;32;20002;-86
2021/12/16 04:52:38;;;;;;;;;;;;;;;8.77;57.74;101199.09;4396687;32;19978;-86
2021/12/16 04:55:06;;;;;;;;;;;;;;;8.67;57.21;101196.03;4396977;32;20034;-86
2021/12/16 04:57:33;;;;;;;;;;;;;;;8.83;57.15;101196.78;4385471;32;20361;-82
2021/12/16 05:00:02;;;;;;;;;;;;;;;8.84;57.06;101196.00;4386364;32;19975;-85
2021/12/16 05:02:30;;;;;;;;;;;;;;;8.80;57.24;101188.91;4386090;32;20123;-86
2021/12/16 05:04:59;;;;;;;;;;;;;;;8.79;56.99;101192.31;4386535;32;19978;-87
2021/12/16 05:07:26;;;;;;;;;;;;;;;8.76;56.38;101193.88;4396984;32;19987;-87
2021/12/16 05:10:07;;;;;;;;;;;;;;;8.77;56.32;101193.94;4385959;32;20374;-86
2021/12/16 05:12:44;;;;;;;;;;;;;;;8.57;56.87;101190.44;4395673;32;19990;-86
2021/12/16 05:15:12;;;;;;;;;;;;;;;8.60;56.72;101189.72;4386114;32;20004;-89
2021/12/16 05:17:44;;;;;;;;;;;;;;;8.54;56.33;101189.44;4397318;32;19982;-89
2021/12/16 05:20:12;;;;;;;;;;;;;;;8.49;56.43;101189.25;4396800;32;20737;-87
2021/12/16 05:28:20;;;;;;;;;;;;;;;8.25;57.62;101195.78;4394148;32;19982;-85
2021/12/16 05:30:47;;;;;;;;;;;;;;;8.13;58.50;101196.09;4397132;32;19991;-87
2021/12/16 05:33:15;;;;;;;;;;;;;;;8.30;58.54;101200.34;4397300;32;20004;-82
2021/12/16 05:35:48;;;;;;;;;;;;;;;8.40;58.11;101206.00;4385845;32;19986;-89
2021/12/16 05:38:15;;;;;;;;;;;;;;;8.33;57.86;101200.50;4385820;32;20001;-86
2021/12/16 05:40:42;;;;;;;;;;;;;;;8.25;58.02;101201.81;4385353;32;20368;-85
2021/12/16 05:43:11;;;;;;;;;;;;;;;8.41;58.11;101207.75;4385165;32;19991;-87
2021/12/16 05:45:38;;;;;;;;;;;;;;;8.51;57.90;101209.94;4385569;32;20005;-85
2021/12/16 05:48:07;;;;;;;;;;;;;;;8.48;58.21;101204.62;4384764;32;20001;-86
2021/12/16 05:50:35;;;;;;;;;;;;;;;8.48;58.81;101214.94;4382054;32;20032;-85
2021/12/16 05:53:02;;;;;;;;;;;;;;;8.47;59.01;101213.19;4383400;32;20046;-87
2021/12/16 05:55:29;;;;;;;;;;;;;;;8.48;59.25;101218.41;4395467;32;19974;-92
2021/12/16 05:58:01;;;;;;;;;;;;;;;8.28;59.96;101220.03;4384103;32;20331;-88
2021/12/16 06:00:30;;;;;;;;;;;;;;;8.53;59.07;101218.66;4385651;32;19997;-82
2021/12/16 06:02:58;;;;;;;;;;;;;;;8.35;59.33;101218.62;4396830;32;19979;-86
2021/12/16 06:05:25;;;;;;;;;;;;;;;8.46;59.08;101217.47;4385627;32;20041;-85
2021/12/16 06:07:53;;;;;;;;;;;;;;;8.47;59.40;101220.94;4385489;32;20024;-85
2021/12/16 06:12:53;;;;;;;;;;;;;;;8.54;57.67;101215.25;4385174;32;20428;-90
2021/12/16 06:15:36;;;;;;;;;;;;;;;8.52;57.76;101216.84;4396066;32;19975;-85
2021/12/16 06:26:32;;;;;;;;;;;;;;;8.60;59.55;101210.37;4384248;32;19994;-83
2021/12/16 06:28:59;;;;;;;;;;;;;;;8.55;59.90;101214.41;4380118;32;20307;-83
2021/12/16 06:31:26;;;;;;;;;;;;;;;8.73;59.71;101222.12;4384498;32;19996;-83
2021/12/16 06:33:53;;;;;;;;;;;;;;;8.73;59.83;101217.84;4395944;32;19997;-83
2021/12/16 06:36:20;;;;;;;;;;;;;;;8.72;60.05;101226.41;4382872;32;20021;-83
2021/12/16 06:38:47;;;;;;;;;;;;;;;8.75;59.86;101225.69;4393047;32;20532;-83
2021/12/16 06:41:14;;;;;;;;;;;;;;;8.67;60.33;101227.88;4393808;32;20941;-84
2021/12/16 06:43:44;;;;;;;;;;;;;;;8.80;59.91;101230.22;4393853;32;20001;-84
2021/12/16 06:46:15;;;;;;;;;;;;;;;8.96;59.36;101225.75;4391538;32;19996;-81
2021/12/16 06:48:45;;;;;;;;;;;;;;;8.90;59.59;101228.06;4377087;32;20042;-77
2021/12/16 06:51:19;;;;;;;;;;;;;;;8.88;59.53;101227.13;4390542;32;20036;-79
2021/12/16 06:54:04;;;;;;;;;;;;;;;8.99;59.24;101231.06;4393677;32;20318;-81
2021/12/16 06:56:48;;;;;;;;;;;;;;;8.99;59.28;101237.09;4391525;32;19983;-80
2021/12/16 06:59:29;;;;;;;;;;;;;;;9.21;58.59;101241.53;4392091;32;19986;-80
2021/12/16 07:02:31;;;;;;;;;;;;;;;8.94;59.30;101243.78;4392085;32;20024;-79
2021/12/16 07:04:46;;;;;;;;;;;;;;;8.91;59.72;101247.91;4388559;32;19986;-79
2021/12/16 07:07:14;;;;;;;;;;;;;;;8.92;59.55;101244.50;4380925;32;20005;-79
2021/12/16 07:09:41;;;;;;;;;;;;;;;8.75;59.95;101247.22;4382873;32;19986;-76
2021/12/16 07:12:09;;;;;;;;;;;;;;;8.85;59.80;101249.41;4382134;32;20648;-80
2021/12/16 07:14:39;;;;;;;;;;;;;;;8.94;59.78;101253.22;4382633;32;19982;-79
2021/12/16 07:17:06;;;;;;;;;;;;;;;8.93;60.02;101252.31;4380288;32;19986;-79
2021/12/16 07:19:33;;;;;;;;;;;;;;;9.01;59.71;101245.81;4374727;32;20005;-79
2021/12/16 07:22:00;;;;;;;;;;;;;;;9.14;59.28;101247.25;4372970;32;20505;-86
2021/12/16 07:24:27;;;;;;;;;;;;;;;9.09;59.62;101248.72;4389367;32;20002;-85
2021/12/16 07:26:54;;;;;;;;;;;;;;;9.17;59.32;101252.53;4375727;32;22099;-82
2021/12/16 07:29:21;;;;;;;;;;;;;;;9.15;59.33;101249.00;4378586;32;20715;-84
2021/12/16 07:31:48;;;;;;;;;;;;;;;9.05;59.82;101254.56;4380929;32;19978;-86
2021/12/16 07:34:15;;;;;;;;;;;;;;;9.25;59.29;101256.38;4381390;32;19983;-89
2021/12/16 07:36:42;;;;;;;;;;;;;;;8.84;60.47;101247.63;4380006;32;19998;-85
2021/12/16 07:39:11;;;;;;;;;;;;;;;8.80;60.93;101250.87;4378345;32;20380;-87
2021/12/16 07:41:43;;;;;;;;;;;;;;;8.97;60.46;101248.19;4381990;32;20299;-82
2021/12/16 07:44:11;;;;;;;;;;;;;;;9.00;60.28;101246.63;4379253;32;20853;-83
2021/12/16 07:46:46;;;;;;;;;;;;;;;8.70;61.44;101246.09;4391232;32;19995;-85
2021/12/16 07:49:14;;;;;;;;;;;;;;;8.88;61.07;101243.50;4390042;32;19986;-83
2021/12/16 07:51:43;;;;;;;;;;;;;;;8.82;61.21;101245.78;4391562;32;20001;-84
2021/12/16 07:54:10;;;;;;;;;;;;;;;8.96;60.90;101241.25;4391826;32;20009;-82
2021/12/16 07:56:40;;;;;;;;;;;;;;;8.75;61.32;101247.22;4392108;32;20036;-81
2021/12/16 07:59:09;;;;;;;;;;;;;;;8.90;61.11;101253.87;4390516;32;19990;-80
2021/12/16 08:01:36;;;;;;;;;;;;;;;9.02;60.56;101257.03;4391443;32;20692;-82
2021/12/16 08:04:03;;;;;;;;;;;;;;;8.92;61.02;101250.56;4392915;32;19982;-78
2021/12/16 08:06:31;;;;;;;;;;;;;;;8.98;60.95;101239.63;4392431;32;20672;-79
2021/12/16 08:09:03;;;;;;;;;;;;;;;9.13;60.28;101245.47;4379936;32;19990;-80
2021/12/16 08:11:31;;;;;;;;;;;;;;;9.37;59.58;101249.94;4381935;32;20438;-79
2021/12/16 08:14:03;;;;;;;;;;;;;;;9.18;60.16;101251.72;4384904;32;19988;-81
2021/12/16 08:16:30;;;;;;;;;;;;;;;9.18;60.37;101259.47;4379736;32;20535;-82
2021/12/16 08:18:57;;;;;;;;;;;;;;;9.09;60.85;101248.72;4392469;32;20061;-83
2021/12/16 08:21:27;;;;;;;;;;;;;;;8.98;61.33;101249.97;4392491;32;19986;-84
2021/12/16 08:23:55;;;;;;;;;;;;;;;9.18;60.78;101254.31;4392380;32;20005;-80
2021/12/16 08:26:22;;;;;;;;;;;;;;;9.00;61.18;101258.66;4389843;32;20828;-91
2021/12/16 08:28:49;;;;;;;;;;;;;;;9.36;60.18;101255.94;4386133;32;19990;-89
2021/12/16 08:31:16;;;;;;;;;;;;;;;9.21;60.74;101262.19;4375780;32;20587;-87
2021/12/16 08:33:43;;;;;;;;;;;;;;;9.20;60.70;101262.12;4392148;32;20458;-89
2021/12/16 08:36:10;;;;;;;;;;;;;;;9.43;60.03;101255.38;4369052;32;19979;-91
2021/12/16 08:38:37;;;;;;;;;;;;;;;9.45;59.96;101243.44;4381088;32;20005;-82
2021/12/16 08:41:08;;;;;;;;;;;;;;;9.58;59.50;101245.72;4382109;32;20033;-86
2021/12/16 08:43:36;;;;;;;;;;;;;;;9.66;59.33;101249.50;4370159;32;19982;-92
2021/12/16 08:46:03;;;;;;;;;;;;;;;9.72;59.23;101254.91;4390888;32;20007;-91
2021/12/16 08:48:30;;;;;;;;;;;;;;;9.66;59.54;101248.59;4374350;32;20338;-88
2021/12/16 08:50:57;;;;;;;;;;;;;;;9.89;58.78;101244.41;4381362;32;20827;-92
2021/12/16 08:53:24;;;;;;;;;;;;;;;9.75;59.38;101255.06;4381158;32;20370;-90
2021/12/16 08:55:51;;;;;;;;;;;;;;;9.58;60.25;101253.47;4381163;32;20041;-80
2021/12/16 08:58:18;;;;;;;;;;;;;;;9.66;59.99;101253.78;4380814;32;19975;-81
2021/12/16 09:00:48;;;;;;;;;;;;;;;9.76;59.72;101256.84;4378871;32;20005;-80
2021/12/16 09:03:14;;;;;;;;;;;;;;;9.83;59.95;101257.06;4387796;32;20112;-78
2021/12/16 09:05:41;;;;;;;;;;;;;;;10.10;59.26;101247.88;4391537;32;19979;-79
2021/12/16 09:08:09;;;;;;;;;;;;;;;9.97;59.81;101253.38;4389775;32;20009;-78
2021/12/16 09:10:42;;;;;;;;;;;;;;;10.21;58.73;101244.03;4374552;32;20057;-78
2021/12/16 09:13:15;;;;;;;;;;;;;;;10.11;58.94;101241.84;4390756;32;20000;-85
2021/12/16 09:15:48;;;;;;;;;;;;;;;9.81;60.47;101248.38;4379825;32;20001;-80
2021/12/16 09:18:16;;;;;;;;;;;;;;;10.12;59.08;101241.06;4380888;32;19982;-80
2021/12/16 09:20:43;;;;;;;;;;;;;;;9.86;60.12;101239.09;4392245;32;20002;-79
2021/12/16 09:23:10;;;;;;;;;;;;;;;9.90;59.65;101243.59;4378004;32;20351;-79
2021/12/16 09:25:38;;;;;;;;;;;;;;;9.84;60.19;101235.59;4390935;32;20311;-78
2021/12/16 09:28:05;;;;;;;;;;;;;;;9.52;61.53;101242.88;4392314;32;20377;-79
2021/12/16 09:30:34;;;;;;;;;;;;;;;9.51;61.09;101243.69;4378385;32;20776;-79
2021/12/16 09:33:07;;;;;;;;;;;;;;;9.54;61.33;101238.66;4377179;32;19999;-79
2021/12/16 09:35:35;;;;;;;;;;;;;;;9.49;61.66;101240.16;4392106;32;19982;-78
2021/12/16 09:38:03;;;;;;;;;;;;;;;9.73;60.82;101246.38;4392259;32;20035;-80
2021/12/16 09:40:45;;;;;;;;;;;;;;;9.81;60.82;101240.63;4375412;32;20150;-81
2021/12/16 09:43:13;;;;;;;;;;;;;;;9.66;60.99;101241.72;4387760;32;19998;-83
2021/12/16 09:45:52;;;;;;;;;;;;;;;10.01;59.54;101238.03;4404652;32;20025;-82
2021/12/16 09:48:19;;;;;;;;;;;;;;;9.56;61.26;101231.81;4396754;32;20714;-82
2021/12/16 09:50:47;;;;;;;;;;;;;;;9.96;59.80;101233.50;4410719;32;20010;-80
2021/12/16 09:53:14;;;;;;;;;;;;;;;10.13;59.55;101231.59;4393708;32;20012;-80
2021/12/16 09:55:43;;;;;;;;;;;;;;;10.40;58.16;101232.72;4396685;32;20315;-82
2021/12/16 09:58:10;;;;;;;;;;;;;;;10.22;59.14;101227.66;4385844;32;20295;-82
2021/12/16 10:00:37;;;;;;;;;;;;;;;9.78;60.85;101237.06;4388555;32;19991;-82
2021/12/16 10:03:05;;;;;;;;;;;;;;;9.94;60.28;101229.97;4384161;32;20022;-81
2021/12/16 10:05:34;;;;;;;;;;;;;;;10.17;59.94;101226.59;4383867;32;20316;-81
2021/12/16 10:08:04;;;;;;;;;;;;;;;9.99;60.75;101224.16;4384559;32;19998;-80
2021/12/16 10:10:31;;;;;;;;;;;;;;;10.36;59.74;101214.41;4395048;32;19982;-81
2021/12/16 10:13:00;;;;;;;;;;;;;;;10.31;60.26;101221.13;4383491;32;20014;-80
2021/12/16 10:17:59;;;;;;;;;;;;;;;10.79;58.97;101210.88;4384005;32;20338;-81
2021/12/16 10:20:27;;;;;;;;;;;;;;;10.86;58.16;101207.69;4384330;32;20010;-80
2021/12/16 10:23:17;;;;;;;;;;;;;;;10.87;58.06;101199.97;4383776;32;20005;-84
2021/12/16 10:25:54;;;;;;;;;;;;;;;11.04;57.42;101197.09;4368272;32;19975;-83
2021/12/16 10:28:23;;;;;;;;;;;;;;;10.82;57.97;101200.66;4389168;32;19974;-83
2021/12/16 10:30:57;;;;;;;;;;;;;;;11.21;56.04;101189.94;4386086;32;20364;-82
2021/12/16 10:33:32;;;;;;;;;;;;;;;11.06;57.13;101185.09;4381348;32;19982;-82
2021/12/16 10:35:58;;;;;;;;;;;;;;;11.00;56.71;101195.22;4404678;32;20316;-84
2021/12/16 10:38:25;;;;;;;;;;;;;;;10.96;56.87;101194.25;4386178;32;19995;-82
2021/12/16 10:40:53;;;;;;;;;;;;;;;10.89;57.38;101194.84;4394191;32;19986;-77
2021/12/16 10:43:47;;;;;;;;;;;;;;;10.93;56.68;101195.00;4388506;32;20609;-84
2021/12/16 10:46:21;;;;;;;;;;;;;;;10.67;57.86;101194.06;4383567;32;20029;-81
2021/12/16 10:48:52;;;;;;;;;;;;;;;10.60;57.83;101188.59;4384921;32;20001;-83
2021/12/16 10:51:29;;;;;;;;;;;;;;;10.61;57.65;101180.88;4386199;32;19986;-81
2021/12/16 10:53:58;;;;;;;;;;;;;;;11.16;55.55;101180.28;4385716;32;19974;-82
2021/12/16 10:56:37;;;;;;;;;;;;;;;10.78;57.03;101188.38;4385951;32;19982;-83
2021/12/16 10:59:06;;;;;;;;;;;;;;;10.51;57.89;101189.13;4384832;32;20394;-83
2021/12/16 11:01:34;;;;;;;;;;;;;;;10.92;56.76;101192.38;4386383;32;19979;-81
2021/12/16 11:04:08;;;;;;;;;;;;;;;10.79;57.42;101188.44;4374855;32;20032;-89
2021/12/16 11:06:37;;;;;;;;;;;;;;;10.85;57.23;101191.28;4383754;32;19993;-90
2021/12/16 11:09:23;;;;;;;;;;;;;;;11.00;56.78;101190.91;4374283;32;20012;-83
2021/12/16 11:12:09;;;;;;;;;;;;;;;11.02;56.46;101188.41;4380359;32;20437;-78
2021/12/16 11:14:37;;;;;;;;;;;;;;;10.97;56.97;101188.22;4379990;32;19986;-80
2021/12/16 11:17:05;;;;;;;;;;;;;;;11.07;56.85;101179.97;4380776;32;19979;-88
2021/12/16 11:19:38;;;;;;;;;;;;;;;10.94;57.38;101186.44;4380980;32;20054;-80
2021/12/16 11:22:05;;;;;;;;;;;;;;;11.12;56.80;101181.00;4379777;32;20366;-84
2021/12/16 11:24:32;;;;;;;;;;;;;;;11.22;56.58;101168.38;4377826;32;19983;-78
2021/12/16 11:26:59;;;;;;;;;;;;;;;11.08;57.16;101173.97;4377822;32;20048;-85
2021/12/16 11:29:30;;;;;;;;;;;;;;;11.26;56.50;101170.22;4393750;32;20029;-88
2021/12/16 11:31:57;;;;;;;;;;;;;;;11.43;55.61;101174.31;4380451;32;20040;-84
2021/12/16 11:34:23;;;;;;;;;;;;;;;11.44;55.54;101162.22;4379502;32;20468;-88
2021/12/16 11:36:54;;;;;;;;;;;;;;;11.22;56.61;101160.59;4380523;32;19966;-82
2021/12/16 11:39:27;;;;;;;;;;;;;;;11.20;56.55;101162.25;4378560;32;20016;-83
2021/12/16 11:42:00;;;;;;;;;;;;;;;11.46;55.76;101151.06;4380633;32;19989;-84
2021/12/16 11:44:47;;;;;;;;;;;;;;;11.31;56.18;101158.31;4388729;32;19991;-79
2021/12/16 11:47:23;;;;;;;;;;;;;;;11.41;56.00;101152.63;4379167;32;19978;-84
2021/12/16 11:49:51;;;;;;;;;;;;;;;11.33;56.18;101148.91;4391110;32;19986;-84
2021/12/16 11:52:20;;;;;;;;;;;;;;;11.19;56.77;101153.59;4391316;32;19990;-83
2021/12/16 11:54:49;;;;;;;;;;;;;;;11.08;57.18;101141.97;4380569;32;19991;-82
2021/12/16 11:57:32;;;;;;;;;;;;;;;11.15;56.85;101150.00;4379326;32;19986;-78
2021/12/16 12:00:05;;;;;;;;;;;;;;;11.05;56.82;101147.94;4380477;32;19997;-80
2021/12/16 12:02:41;;;;;;;;;;;;;;;11.29;56.25;101141.81;4368586;32;20910;-80
2021/12/16 12:05:26;;;;;;;;;;;;;;;11.38;56.18;101142.13;4380729;32;19982;-85
2021/12/16 12:07:55;;;;;;;;;;;;;;;11.12;56.82;101139.53;4390062;32;19983;-82
2021/12/16 12:10:41;;;;;;;;;;;;;;;11.20;56.55;101141.50;4380506;32;20075;-81
2021/12/16 12:13:10;;;;;;;;;;;;;;;11.09;56.96;101139.44;4389792;32;20712;-80
2021/12/16 12:15:56;;;;;;;;;;;;;;;10.41;59.15;101148.19;4391259;32;20462;-80
2021/12/16 12:18:33;;;;;;;;;;;;;;;10.71;58.52;101151.03;4380959;32;20117;-81
2021/12/16 12:21:15;;;;;;;;;;;;;;;10.64;58.86;101149.91;4380425;32;19990;-79
2021/12/16 12:23:42;;;;;;;;;;;;;;;10.74;58.50;101139.91;4381158;32;20024;-82
2021/12/16 12:26:16;;;;;;;;;;;;;;;11.11;57.36;101142.09;4390740;32;19990;-83
2021/12/16 12:28:53;;;;;;;;;;;;;;;11.18;56.77;101144.94;4403735;32;19974;-79
2021/12/16 12:31:21;;;;;;;;;;;;;;;10.91;58.02;101133.59;4376276;32;19994;-80
2021/12/16 12:33:48;;;;;;;;;;;;;;;11.24;56.82;101138.22;4378516;32;20001;-78
2021/12/16 12:36:16;;;;;;;;;;;;;;;11.29;56.57;101136.62;4381143;32;20093;-78
2021/12/16 12:38:43;;;;;;;;;;;;;;;11.34;56.14;101129.91;4380207;32;19979;-78
2021/12/16 12:41:10;;;;;;;;;;;;;;;11.20;56.80;101136.31;4373627;32;20734;-78
2021/12/16 12:43:37;;;;;;;;;;;;;;;10.93;57.47;101138.00;4364630;32;19983;-77
2021/12/16 12:46:05;;;;;;;;;;;;;;;10.90;57.67;101134.44;4365572;32;20422;-79
2021/12/16 12:48:36;;;;;;;;;;;;;;;11.08;57.36;101132.50;4374126;32;20037;-79
2021/12/16 12:51:04;;;;;;;;;;;;;;;11.14;57.31;101132.72;4377935;32;20000;-78
2021/12/16 12:53:32;;;;;;;;;;;;;;;11.41;56.02;101132.75;4380090;32;20774;-77
2021/12/16 12:56:09;;;;;;;;;;;;;;;11.22;56.90;101124.31;4380054;32;19986;-77
2021/12/16 12:58:46;;;;;;;;;;;;;;;11.15;57.10;101123.22;4380044;32;20008;-78
2021/12/16 13:01:16;;;;;;;;;;;;;;;11.06;56.94;101126.38;4375502;32;21024;-79
2021/12/16 13:03:45;;;;;;;;;;;;;;;11.04;57.20;101129.72;4376841;32;20383;-79
2021/12/16 13:06:14;;;;;;;;;;;;;;;11.11;56.91;101132.59;4379842;32;20066;-80
2021/12/16 13:08:47;;;;;;;;;;;;;;;10.40;59.40;101138.63;4377817;32;20033;-81
2021/12/16 13:11:14;;;;;;;;;;;;;;;10.83;57.91;101135.94;4379848;32;19995;-80
2021/12/16 13:14:03;;;;;;;;;;;;;;;10.88;57.79;101134.41;4377419;32;19982;-80
2021/12/16 13:28:18;;;;;;;;;;;;;;;10.47;59.03;101145.84;4364826;32;19991;-81
2021/12/16 13:30:58;;;;;;;;;;;;;;;10.48;58.80;101152.75;4377642;32;19978;-79
2021/12/16 13:33:43;;;;;;;;;;;;;;;10.48;59.15;101152.75;4377006;32;19986;-79
2021/12/16 13:36:18;;;;;;;;;;;;;;;10.60;58.45;101152.34;4378180;32;20002;-80
2021/12/16 13:38:50;;;;;;;;;;;;;;;10.58;58.61;101160.03;4378633;32;19997;-79
2021/12/16 13:41:19;;;;;;;;;;;;;;;10.58;58.67;101160.03;4379127;32;20626;-78
2021/12/16 13:44:06;;;;;;;;;;;;;;;10.15;59.67;101171.31;4379628;32;19987;-78
2021/12/16 13:46:55;;;;;;;;;;;;;;;10.40;59.23;101167.09;4379696;32;20038;-78
2021/12/16 13:58:19;;;;;;;;;;;;;;;10.80;58.01;101171.19;4382378;32;19994;-80
2021/12/16 14:03:42;;;;;;;;;;;;;;;11.04;57.00;101166.91;4382333;32;20063;-79
2021/12/16 14:06:21;;;;;;;;;;;;;;;11.07;56.75;101161.84;4377778;32;20038;-80
2021/12/16 14:08:50;;;;;;;;;;;;;;;10.75;57.88;101167.53;4380166;32;19990;-82
2021/12/16 14:14:43;;;;;;;;;;;;;;;10.80;57.91;101158.25;4380344;32;19970;-79
2021/12/16 14:17:40;;;;;;;;;;;;;;;10.85;57.67;101169.66;4380209;32;20524;-82
2021/12/16 14:23:13;;;;;;;;;;;;;;;10.55;58.60;101159.94;4380244;32;19990;-85
2021/12/16 14:31:27;;;;;;;;;;;;;;;10.68;58.08;101167.31;4378387;32;20457;-85
2021/12/16 14:39:40;;;;;;;;;;;;;;;11.00;57.24;101165.00;4379947;32;19991;-85
2021/12/16 14:45:28;;;;;;;;;;;;;;;10.48;58.54;101174.34;4385235;32;20339;-80
2021/12/16 14:50:31;;;;;;;;;;;;;;;11.30;56.33;101174.72;4377968;32;19975;-83
2021/12/16 14:52:59;;;;;;;;;;;;;;;11.07;56.97;101177.38;4389920;32;20335;-80
2021/12/16 14:55:26;;;;;;;;;;;;;;;10.70;58.23;101170.84;4379176;32;20029;-81
2021/12/16 14:57:55;;;;;;;;;;;;;;;10.87;57.76;101168.00;4376913;32;19971;-78
2021/12/16 15:00:29;;;;;;;;;;;;;;;10.60;58.74;101173.06;4378803;32;20489;-84
2021/12/16 15:03:06;;;;;;;;;;;;;;;10.78;58.09;101170.25;4378008;32;19982;-84
2021/12/16 15:05:35;;;;;;;;;;;;;;;10.80;58.03;101171.19;4378866;32;20516;-85
2021/12/16 15:08:10;;;;;;;;;;;;;;;10.87;57.81;101178.34;4378536;32;19990;-80
2021/12/16 15:10:37;;;;;;;;;;;;;;;10.90;57.76;101176.75;4379022;32;19978;-83
2021/12/16 15:13:16;;;;;;;;;;;;;;;11.05;57.40;101173.84;4378144;32;20011;-86
2021/12/16 15:15:53;;;;;;;;;;;;;;;10.97;57.74;101170.09;4382390;32;20005;-83
2021/12/16 15:40:15;;;;;;;;;;;;;;;11.10;57.11;101159.34;4393195;32;20017;-87
2021/12/16 15:43:02;;;;;;;;;;;;;;;11.12;56.92;101167.16;4384203;32;20147;-85
2021/12/16 15:45:37;;;;;;;;;;;;;;;11.04;57.46;101166.91;4383984;32;20036;-83
2021/12/16 15:48:15;;;;;;;;;;;;;;;11.16;56.90;101177.69;4392850;32;21006;-85
2021/12/16 15:50:44;;;;;;;;;;;;;;;11.09;56.96;101157.56;4393638;32;19982;-81
2021/12/16 15:53:12;;;;;;;;;;;;;;;10.69;58.03;101169.09;4394607;32;19990;-77
2021/12/16 15:55:44;;;;;;;;;;;;;;;10.95;57.42;101171.75;4394060;32;19974;-83
2021/12/16 15:58:16;;;;;;;;;;;;;;;11.10;56.92;101174.91;4394245;32;20220;-81
2021/12/16 16:00:44;;;;;;;;;;;;;;;10.97;57.34;101175.28;4373913;32;20038;-82
2021/12/16 16:03:12;;;;;;;;;;;;;;;10.93;57.54;101176.88;4379380;32;20013;-83
2021/12/16 16:05:40;;;;;;;;;;;;;;;11.08;56.97;101179.13;4380786;32;19994;-86
2021/12/16 16:08:08;;;;;;;;;;;;;;;10.89;57.45;101181.91;4358050;32;788724;-84
2021/12/16 16:10:36;;;;;;;;;;;;;;;10.91;57.30;101182.81;4382342;32;20089;-84
2021/12/16 16:13:09;;;;;;;;;;;;;;;10.61;58.26;101186.03;4383044;32;19999;-85
2021/12/16 16:15:36;;;;;;;;;;;;;;;10.85;57.52;101190.41;4381644;32;19978;-84
2021/12/16 16:18:15;;;;;;;;;;;;;;;10.61;58.02;101191.22;4383272;32;20032;-85
2021/12/16 16:20:44;;;;;;;;;;;;;;;10.69;57.91;101189.81;4381344;32;20457;-84
2021/12/16 16:23:12;;;;;;;;;;;;;;;10.70;57.94;101183.81;4383643;32;19987;-84
2021/12/16 16:25:40;;;;;;;;;;;;;;;10.48;58.54;101195.06;4390896;32;20312;-82
2021/12/16 16:28:08;;;;;;;;;;;;;;;10.56;58.53;101197.97;4395907;32;20005;-81
2021/12/16 16:30:35;;;;;;;;;;;;;;;10.43;58.82;101185.34;4383607;32;20016;-85
2021/12/16 16:33:05;;;;;;;;;;;;;;;10.69;58.10;101184.62;4385040;32;20037;-85